sensor_id;sensor_type;location;lat;lon;timestamp;P1;durP1;ratioP1;P2;durP2;ratioP2
1691;SDS011;843;52.054;8.552;2024-01-11T00:01:28;50.22;;;32.90;;
1691;SDS011;843;52.054;8.552;2024-01-11T00:03:55;51.45;;;33.67;;
1691;SDS011;843;52.054;8.552;2024-01-11T00:06:22;57.97;;;33.55;;
1691;SDS011;843;52.054;8.552;2024-01-11T00:08:48;52.50;;;34.20;;
1691;SDS011;843;52.054;8.552;2024-01-11T00:11:15;50.78;;;33.05;;
1691;SDS011;843;52.054;8.552;2024-01-11T00:13:41;49.83;;;33.17;;
1691;SDS011;843;52.054;8.552;2024-01-11T00:16:07;56.13;;;36.75;;
1691;SDS011;843;52.054;8.552;2024-01-11T00:18:34;53.50;;;32.55;;
1691;SDS011;843;52.054;8.552;2024-01-11T00:21:02;43.47;;;32.03;;
1691;SDS011;843;52.054;8.552;2024-01-11T00:23:28;51.83;;;31.23;;
1691;SDS011;843;52.054;8.552;2024-01-11T00:25:54;50.13;;;29.58;;
1691;SDS011;843;52.054;8.552;2024-01-11T00:28:21;55.80;;;28.52;;
1691;SDS011;843;52.054;8.552;2024-01-11T00:30:47;50.53;;;31.45;;
1691;SDS011;843;52.054;8.552;2024-01-11T00:33:13;48.42;;;29.02;;
1691;SDS011;843;52.054;8.552;2024-01-11T00:35:40;53.03;;;32.83;;
1691;SDS011;843;52.054;8.552;2024-01-11T00:38:08;47.85;;;32.55;;
1691;SDS011;843;52.054;8.552;2024-01-11T00:40:34;58.83;;;35.60;;
1691;SDS011;843;52.054;8.552;2024-01-11T00:43:00;53.97;;;34.05;;
1691;SDS011;843;52.054;8.552;2024-01-11T00:45:27;51.70;;;32.72;;
1691;SDS011;843;52.054;8.552;2024-01-11T00:47:53;47.95;;;35.17;;
1691;SDS011;843;52.054;8.552;2024-01-11T00:50:20;46.58;;;36.10;;
1691;SDS011;843;52.054;8.552;2024-01-11T00:52:46;45.75;;;33.78;;
1691;SDS011;843;52.054;8.552;2024-01-11T00:55:14;57.67;;;36.17;;
1691;SDS011;843;52.054;8.552;2024-01-11T00:57:41;51.00;;;34.50;;
1691;SDS011;843;52.054;8.552;2024-01-11T01:00:08;55.97;;;33.35;;
1691;SDS011;843;52.054;8.552;2024-01-11T01:02:38;55.38;;;31.40;;
1691;SDS011;843;52.054;8.552;2024-01-11T01:05:04;50.13;;;35.35;;
1691;SDS011;843;52.054;8.552;2024-01-11T01:07:31;48.92;;;31.95;;
1691;SDS011;843;52.054;8.552;2024-01-11T01:09:57;52.40;;;33.15;;
1691;SDS011;843;52.054;8.552;2024-01-11T01:12:25;55.67;;;34.85;;
1691;SDS011;843;52.054;8.552;2024-01-11T01:14:52;52.78;;;35.00;;
1691;SDS011;843;52.054;8.552;2024-01-11T01:17:18;58.08;;;36.47;;
1691;SDS011;843;52.054;8.552;2024-01-11T01:19:44;50.85;;;33.22;;
1691;SDS011;843;52.054;8.552;2024-01-11T01:22:11;48.90;;;33.92;;
1691;SDS011;843;52.054;8.552;2024-01-11T01:24:37;43.45;;;30.90;;
1691;SDS011;843;52.054;8.552;2024-01-11T01:27:04;47.30;;;31.17;;
1691;SDS011;843;52.054;8.552;2024-01-11T01:29:31;45.97;;;32.65;;
1691;SDS011;843;52.054;8.552;2024-01-11T01:31:59;45.22;;;31.50;;
1691;SDS011;843;52.054;8.552;2024-01-11T01:34:25;43.03;;;31.95;;
1691;SDS011;843;52.054;8.552;2024-01-11T01:36:52;47.05;;;32.90;;
1691;SDS011;843;52.054;8.552;2024-01-11T01:39:18;50.08;;;32.47;;
1691;SDS011;843;52.054;8.552;2024-01-11T01:41:44;51.10;;;33.95;;
1691;SDS011;843;52.054;8.552;2024-01-11T01:44:11;55.08;;;32.03;;
1691;SDS011;843;52.054;8.552;2024-01-11T01:46:39;41.85;;;31.85;;
1691;SDS011;843;52.054;8.552;2024-01-11T01:49:05;48.47;;;28.65;;
1691;SDS011;843;52.054;8.552;2024-01-11T01:51:33;45.13;;;29.65;;
1691;SDS011;843;52.054;8.552;2024-01-11T01:53:59;46.45;;;30.65;;
1691;SDS011;843;52.054;8.552;2024-01-11T01:56:26;45.00;;;31.77;;
1691;SDS011;843;52.054;8.552;2024-01-11T01:58:53;52.35;;;33.25;;
1691;SDS011;843;52.054;8.552;2024-01-11T02:01:19;50.38;;;32.30;;
1691;SDS011;843;52.054;8.552;2024-01-11T02:03:48;42.95;;;29.45;;
1691;SDS011;843;52.054;8.552;2024-01-11T02:06:16;46.45;;;31.08;;
1691;SDS011;843;52.054;8.552;2024-01-11T02:08:42;55.28;;;34.20;;
1691;SDS011;843;52.054;8.552;2024-01-11T02:11:08;49.78;;;31.50;;
1691;SDS011;843;52.054;8.552;2024-01-11T02:13:36;45.72;;;31.13;;
1691;SDS011;843;52.054;8.552;2024-01-11T02:16:03;52.45;;;31.48;;
1691;SDS011;843;52.054;8.552;2024-01-11T02:18:30;49.20;;;30.73;;
1691;SDS011;843;52.054;8.552;2024-01-11T02:20:57;49.33;;;32.30;;
1691;SDS011;843;52.054;8.552;2024-01-11T02:23:24;51.85;;;33.40;;
1691;SDS011;843;52.054;8.552;2024-01-11T02:25:52;51.05;;;31.50;;
1691;SDS011;843;52.054;8.552;2024-01-11T02:28:19;45.15;;;33.70;;
1691;SDS011;843;52.054;8.552;2024-01-11T02:30:45;46.75;;;31.98;;
1691;SDS011;843;52.054;8.552;2024-01-11T02:33:11;46.67;;;29.80;;
1691;SDS011;843;52.054;8.552;2024-01-11T02:35:41;43.20;;;30.42;;
1691;SDS011;843;52.054;8.552;2024-01-11T02:38:08;48.45;;;26.85;;
1691;SDS011;843;52.054;8.552;2024-01-11T02:40:34;56.22;;;27.80;;
1691;SDS011;843;52.054;8.552;2024-01-11T02:43:08;45.20;;;27.08;;
1691;SDS011;843;52.054;8.552;2024-01-11T02:45:34;38.38;;;28.50;;
1691;SDS011;843;52.054;8.552;2024-01-11T02:48:01;54.20;;;33.00;;
1691;SDS011;843;52.054;8.552;2024-01-11T02:50:27;45.58;;;34.50;;
1691;SDS011;843;52.054;8.552;2024-01-11T02:52:54;50.33;;;34.58;;
1691;SDS011;843;52.054;8.552;2024-01-11T02:55:20;45.90;;;30.95;;
1691;SDS011;843;52.054;8.552;2024-01-11T02:57:46;41.60;;;31.17;;
1691;SDS011;843;52.054;8.552;2024-01-11T03:00:14;41.58;;;30.00;;
1691;SDS011;843;52.054;8.552;2024-01-11T03:02:41;50.25;;;30.45;;
1691;SDS011;843;52.054;8.552;2024-01-11T03:05:07;50.28;;;32.47;;
1691;SDS011;843;52.054;8.552;2024-01-11T03:07:34;44.13;;;29.65;;
1691;SDS011;843;52.054;8.552;2024-01-11T03:10:00;46.42;;;31.67;;
1691;SDS011;843;52.054;8.552;2024-01-11T03:12:26;50.33;;;30.80;;
1691;SDS011;843;52.054;8.552;2024-01-11T03:14:53;49.22;;;29.77;;
1691;SDS011;843;52.054;8.552;2024-01-11T03:17:21;42.60;;;32.05;;
1691;SDS011;843;52.054;8.552;2024-01-11T03:19:47;48.15;;;28.98;;
1691;SDS011;843;52.054;8.552;2024-01-11T03:22:14;47.15;;;31.15;;
1691;SDS011;843;52.054;8.552;2024-01-11T03:24:40;43.03;;;24.40;;
1691;SDS011;843;52.054;8.552;2024-01-11T03:27:07;49.47;;;29.88;;
1691;SDS011;843;52.054;8.552;2024-01-11T03:29:33;49.78;;;27.10;;
1691;SDS011;843;52.054;8.552;2024-01-11T03:31:59;42.50;;;27.60;;
1691;SDS011;843;52.054;8.552;2024-01-11T03:34:27;40.67;;;23.10;;
1691;SDS011;843;52.054;8.552;2024-01-11T03:36:53;50.05;;;28.90;;
1691;SDS011;843;52.054;8.552;2024-01-11T03:39:20;44.30;;;26.83;;
1691;SDS011;843;52.054;8.552;2024-01-11T03:41:47;52.78;;;27.10;;
1691;SDS011;843;52.054;8.552;2024-01-11T03:44:14;44.53;;;24.92;;
1691;SDS011;843;52.054;8.552;2024-01-11T03:46:40;48.00;;;25.75;;
1691;SDS011;843;52.054;8.552;2024-01-11T03:49:07;47.70;;;25.55;;
1691;SDS011;843;52.054;8.552;2024-01-11T03:51:35;42.22;;;24.85;;
1691;SDS011;843;52.054;8.552;2024-01-11T03:54:02;49.28;;;27.13;;
1691;SDS011;843;52.054;8.552;2024-01-11T03:56:28;44.75;;;26.95;;
1691;SDS011;843;52.054;8.552;2024-01-11T03:58:55;49.58;;;28.02;;
1691;SDS011;843;52.054;8.552;2024-01-11T04:01:21;39.28;;;25.42;;
1691;SDS011;843;52.054;8.552;2024-01-11T04:03:48;50.25;;;27.38;;
1691;SDS011;843;52.054;8.552;2024-01-11T04:06:18;42.42;;;24.52;;
1691;SDS011;843;52.054;8.552;2024-01-11T04:08:47;46.03;;;24.42;;
1691;SDS011;843;52.054;8.552;2024-01-11T04:11:13;42.22;;;25.38;;
1691;SDS011;843;52.054;8.552;2024-01-11T04:13:40;41.17;;;25.48;;
1691;SDS011;843;52.054;8.552;2024-01-11T04:16:06;43.20;;;27.38;;
1691;SDS011;843;52.054;8.552;2024-01-11T04:18:33;44.22;;;25.13;;
1691;SDS011;843;52.054;8.552;2024-01-11T04:20:59;45.95;;;26.13;;
1691;SDS011;843;52.054;8.552;2024-01-11T04:23:25;36.72;;;23.67;;
1691;SDS011;843;52.054;8.552;2024-01-11T04:25:53;38.22;;;26.98;;
1691;SDS011;843;52.054;8.552;2024-01-11T04:28:20;42.58;;;25.40;;
1691;SDS011;843;52.054;8.552;2024-01-11T04:30:46;42.42;;;26.80;;
1691;SDS011;843;52.054;8.552;2024-01-11T04:33:12;37.70;;;23.27;;
1691;SDS011;843;52.054;8.552;2024-01-11T04:35:39;48.47;;;25.25;;
1691;SDS011;843;52.054;8.552;2024-01-11T04:38:05;44.45;;;24.38;;
1691;SDS011;843;52.054;8.552;2024-01-11T04:40:32;42.97;;;23.83;;
1691;SDS011;843;52.054;8.552;2024-01-11T04:42:59;43.60;;;23.83;;
1691;SDS011;843;52.054;8.552;2024-01-11T04:45:26;36.97;;;22.65;;
1691;SDS011;843;52.054;8.552;2024-01-11T04:47:53;46.90;;;27.17;;
1691;SDS011;843;52.054;8.552;2024-01-11T04:50:19;38.65;;;24.35;;
1691;SDS011;843;52.054;8.552;2024-01-11T04:52:45;40.85;;;26.13;;
1691;SDS011;843;52.054;8.552;2024-01-11T04:55:12;45.08;;;25.63;;
1691;SDS011;843;52.054;8.552;2024-01-11T04:57:38;42.50;;;26.05;;
1691;SDS011;843;52.054;8.552;2024-01-11T05:00:08;38.63;;;24.75;;
1691;SDS011;843;52.054;8.552;2024-01-11T05:02:35;33.53;;;23.70;;
1691;SDS011;843;52.054;8.552;2024-01-11T05:05:01;44.10;;;26.02;;
1691;SDS011;843;52.054;8.552;2024-01-11T05:07:28;37.88;;;23.50;;
1691;SDS011;843;52.054;8.552;2024-01-11T05:09:55;38.75;;;23.70;;
1691;SDS011;843;52.054;8.552;2024-01-11T05:12:21;42.80;;;24.17;;
1691;SDS011;843;52.054;8.552;2024-01-11T05:14:47;37.15;;;22.70;;
1691;SDS011;843;52.054;8.552;2024-01-11T05:17:15;34.63;;;22.02;;
1691;SDS011;843;52.054;8.552;2024-01-11T05:19:42;44.25;;;24.33;;
1691;SDS011;843;52.054;8.552;2024-01-11T05:22:08;39.95;;;24.00;;
1691;SDS011;843;52.054;8.552;2024-01-11T05:24:34;38.50;;;24.52;;
1691;SDS011;843;52.054;8.552;2024-01-11T05:27:01;34.75;;;24.48;;
1691;SDS011;843;52.054;8.552;2024-01-11T05:29:27;44.05;;;25.35;;
1691;SDS011;843;52.054;8.552;2024-01-11T05:31:53;44.05;;;25.38;;
1691;SDS011;843;52.054;8.552;2024-01-11T05:34:22;42.13;;;24.10;;
1691;SDS011;843;52.054;8.552;2024-01-11T05:36:48;38.05;;;24.20;;
1691;SDS011;843;52.054;8.552;2024-01-11T05:39:14;39.72;;;24.65;;
1691;SDS011;843;52.054;8.552;2024-01-11T05:41:43;46.03;;;25.73;;
1691;SDS011;843;52.054;8.552;2024-01-11T05:44:09;41.72;;;23.00;;
1691;SDS011;843;52.054;8.552;2024-01-11T05:46:35;40.63;;;23.52;;
1691;SDS011;843;52.054;8.552;2024-01-11T05:49:02;38.78;;;25.10;;
1691;SDS011;843;52.054;8.552;2024-01-11T05:51:30;41.78;;;26.38;;
1691;SDS011;843;52.054;8.552;2024-01-11T05:53:55;31.75;;;21.95;;
1691;SDS011;843;52.054;8.552;2024-01-11T05:56:21;43.58;;;25.35;;
1691;SDS011;843;52.054;8.552;2024-01-11T05:58:48;42.53;;;25.58;;
1691;SDS011;843;52.054;8.552;2024-01-11T06:01:14;40.47;;;24.25;;
1691;SDS011;843;52.054;8.552;2024-01-11T06:03:41;46.30;;;26.80;;
1691;SDS011;843;52.054;8.552;2024-01-11T06:06:07;48.92;;;25.25;;
1691;SDS011;843;52.054;8.552;2024-01-11T06:08:35;41.25;;;26.63;;
1691;SDS011;843;52.054;8.552;2024-01-11T06:11:01;38.35;;;25.58;;
1691;SDS011;843;52.054;8.552;2024-01-11T06:13:29;36.35;;;22.63;;
1691;SDS011;843;52.054;8.552;2024-01-11T06:15:55;44.47;;;25.75;;
1691;SDS011;843;52.054;8.552;2024-01-11T06:18:21;33.40;;;23.98;;
1691;SDS011;843;52.054;8.552;2024-01-11T06:20:48;40.63;;;25.83;;
1691;SDS011;843;52.054;8.552;2024-01-11T06:23:14;46.50;;;25.17;;
1691;SDS011;843;52.054;8.552;2024-01-11T06:25:43;40.55;;;25.08;;
1691;SDS011;843;52.054;8.552;2024-01-11T06:28:11;37.45;;;24.23;;
1691;SDS011;843;52.054;8.552;2024-01-11T06:30:37;40.55;;;21.00;;
1691;SDS011;843;52.054;8.552;2024-01-11T06:33:04;36.38;;;22.15;;
1691;SDS011;843;52.054;8.552;2024-01-11T06:35:30;41.47;;;23.75;;
1691;SDS011;843;52.054;8.552;2024-01-11T06:37:57;43.20;;;25.40;;
1691;SDS011;843;52.054;8.552;2024-01-11T06:40:23;47.30;;;28.13;;
1691;SDS011;843;52.054;8.552;2024-01-11T06:42:51;44.83;;;27.05;;
1691;SDS011;843;52.054;8.552;2024-01-11T06:45:18;43.97;;;28.75;;
1691;SDS011;843;52.054;8.552;2024-01-11T06:47:45;44.42;;;30.35;;
1691;SDS011;843;52.054;8.552;2024-01-11T06:50:12;34.58;;;25.80;;
1691;SDS011;843;52.054;8.552;2024-01-11T06:52:38;38.65;;;27.73;;
1691;SDS011;843;52.054;8.552;2024-01-11T06:55:05;43.05;;;30.63;;
1691;SDS011;843;52.054;8.552;2024-01-11T06:57:32;42.42;;;27.15;;
1691;SDS011;843;52.054;8.552;2024-01-11T07:00:00;44.50;;;29.95;;
1691;SDS011;843;52.054;8.552;2024-01-11T07:02:26;35.53;;;29.80;;
1691;SDS011;843;52.054;8.552;2024-01-11T07:04:52;43.05;;;28.40;;
1691;SDS011;843;52.054;8.552;2024-01-11T07:07:19;37.55;;;26.35;;
1691;SDS011;843;52.054;8.552;2024-01-11T07:09:45;40.05;;;25.98;;
1691;SDS011;843;52.054;8.552;2024-01-11T07:12:12;33.97;;;23.30;;
1691;SDS011;843;52.054;8.552;2024-01-11T07:14:38;38.45;;;24.50;;
1691;SDS011;843;52.054;8.552;2024-01-11T07:17:06;40.47;;;25.20;;
1691;SDS011;843;52.054;8.552;2024-01-11T07:19:32;33.88;;;24.52;;
1691;SDS011;843;52.054;8.552;2024-01-11T07:21:59;51.33;;;25.88;;
1691;SDS011;843;52.054;8.552;2024-01-11T07:24:25;41.13;;;24.70;;
1691;SDS011;843;52.054;8.552;2024-01-11T07:26:51;38.40;;;25.27;;
1691;SDS011;843;52.054;8.552;2024-01-11T07:29:18;46.72;;;26.52;;
1691;SDS011;843;52.054;8.552;2024-01-11T07:31:45;44.35;;;27.17;;
1691;SDS011;843;52.054;8.552;2024-01-11T07:34:12;44.40;;;26.80;;
1691;SDS011;843;52.054;8.552;2024-01-11T07:36:39;46.85;;;27.42;;
1691;SDS011;843;52.054;8.552;2024-01-11T07:39:05;41.78;;;26.23;;
1691;SDS011;843;52.054;8.552;2024-01-11T07:41:32;45.40;;;25.30;;
1691;SDS011;843;52.054;8.552;2024-01-11T07:43:58;46.47;;;27.63;;
1691;SDS011;843;52.054;8.552;2024-01-11T07:46:25;42.10;;;26.25;;
1691;SDS011;843;52.054;8.552;2024-01-11T07:48:51;40.00;;;25.40;;
1691;SDS011;843;52.054;8.552;2024-01-11T07:51:19;45.03;;;26.77;;
1691;SDS011;843;52.054;8.552;2024-01-11T07:53:45;43.65;;;26.10;;
1691;SDS011;843;52.054;8.552;2024-01-11T07:56:12;37.90;;;23.08;;
1691;SDS011;843;52.054;8.552;2024-01-11T07:58:40;47.90;;;28.00;;
1691;SDS011;843;52.054;8.552;2024-01-11T08:01:06;40.30;;;29.83;;
1691;SDS011;843;52.054;8.552;2024-01-11T08:03:33;44.15;;;30.15;;
1691;SDS011;843;52.054;8.552;2024-01-11T08:06:00;41.63;;;28.52;;
1691;SDS011;843;52.054;8.552;2024-01-11T08:08:28;41.78;;;29.95;;
1691;SDS011;843;52.054;8.552;2024-01-11T08:10:54;43.05;;;28.77;;
1691;SDS011;843;52.054;8.552;2024-01-11T08:13:21;39.15;;;28.08;;
1691;SDS011;843;52.054;8.552;2024-01-11T08:15:47;42.53;;;30.77;;
1691;SDS011;843;52.054;8.552;2024-01-11T08:18:13;55.75;;;33.33;;
1691;SDS011;843;52.054;8.552;2024-01-11T08:20:40;52.10;;;33.53;;
1691;SDS011;843;52.054;8.552;2024-01-11T08:23:06;41.22;;;28.45;;
1691;SDS011;843;52.054;8.552;2024-01-11T08:25:34;41.92;;;30.65;;
1691;SDS011;843;52.054;8.552;2024-01-11T08:28:01;47.17;;;29.17;;
1691;SDS011;843;52.054;8.552;2024-01-11T08:30:28;46.10;;;31.35;;
1691;SDS011;843;52.054;8.552;2024-01-11T08:32:54;44.50;;;28.70;;
1691;SDS011;843;52.054;8.552;2024-01-11T08:35:20;42.50;;;27.70;;
1691;SDS011;843;52.054;8.552;2024-01-11T08:37:47;46.08;;;28.92;;
1691;SDS011;843;52.054;8.552;2024-01-11T08:40:14;38.00;;;28.30;;
1691;SDS011;843;52.054;8.552;2024-01-11T08:42:42;44.25;;;29.13;;
1691;SDS011;843;52.054;8.552;2024-01-11T08:45:08;45.40;;;31.63;;
1691;SDS011;843;52.054;8.552;2024-01-11T08:47:35;42.60;;;28.88;;
1691;SDS011;843;52.054;8.552;2024-01-11T08:50:03;46.20;;;31.05;;
1691;SDS011;843;52.054;8.552;2024-01-11T08:52:31;41.25;;;29.23;;
1691;SDS011;843;52.054;8.552;2024-01-11T08:54:57;38.15;;;25.77;;
1691;SDS011;843;52.054;8.552;2024-01-11T08:57:24;42.65;;;27.65;;
1691;SDS011;843;52.054;8.552;2024-01-11T08:59:52;41.35;;;26.42;;
1691;SDS011;843;52.054;8.552;2024-01-11T09:02:22;37.85;;;26.10;;
1691;SDS011;843;52.054;8.552;2024-01-11T09:04:48;40.03;;;28.15;;
1691;SDS011;843;52.054;8.552;2024-01-11T09:07:15;41.87;;;28.80;;
1691;SDS011;843;52.054;8.552;2024-01-11T09:09:41;38.83;;;26.30;;
1691;SDS011;843;52.054;8.552;2024-01-11T09:12:09;32.63;;;25.00;;
1691;SDS011;843;52.054;8.552;2024-01-11T09:14:35;37.13;;;26.57;;
1691;SDS011;843;52.054;8.552;2024-01-11T09:17:03;32.37;;;24.47;;
1691;SDS011;843;52.054;8.552;2024-01-11T09:19:31;34.73;;;25.20;;
1691;SDS011;843;52.054;8.552;2024-01-11T09:21:58;32.77;;;25.40;;
1691;SDS011;843;52.054;8.552;2024-01-11T09:24:25;35.03;;;26.60;;
1691;SDS011;843;52.054;8.552;2024-01-11T09:26:51;35.30;;;25.30;;
1691;SDS011;843;52.054;8.552;2024-01-11T09:29:18;34.63;;;25.67;;
1691;SDS011;843;52.054;8.552;2024-01-11T09:31:44;37.87;;;28.13;;
1691;SDS011;843;52.054;8.552;2024-01-11T09:34:12;41.63;;;26.43;;
1691;SDS011;843;52.054;8.552;2024-01-11T09:36:38;34.87;;;26.87;;
1691;SDS011;843;52.054;8.552;2024-01-11T09:39:05;39.30;;;26.60;;
1691;SDS011;843;52.054;8.552;2024-01-11T09:41:32;32.90;;;25.47;;
1691;SDS011;843;52.054;8.552;2024-01-11T09:44:01;36.50;;;27.10;;
1691;SDS011;843;52.054;8.552;2024-01-11T09:46:29;30.80;;;25.93;;
1691;SDS011;843;52.054;8.552;2024-01-11T09:48:56;33.87;;;26.90;;
1691;SDS011;843;52.054;8.552;2024-01-11T09:51:24;36.00;;;27.83;;
1691;SDS011;843;52.054;8.552;2024-01-11T09:53:51;34.73;;;27.57;;
1691;SDS011;843;52.054;8.552;2024-01-11T09:56:21;35.97;;;27.03;;
1691;SDS011;843;52.054;8.552;2024-01-11T09:58:48;35.70;;;26.93;;
1691;SDS011;843;52.054;8.552;2024-01-11T10:01:15;34.63;;;28.13;;
1691;SDS011;843;52.054;8.552;2024-01-11T10:03:41;31.77;;;27.93;;
1691;SDS011;843;52.054;8.552;2024-01-11T10:06:08;33.90;;;27.03;;
1691;SDS011;843;52.054;8.552;2024-01-11T10:08:36;30.63;;;26.30;;
1691;SDS011;843;52.054;8.552;2024-01-11T10:11:03;34.30;;;27.10;;
1691;SDS011;843;52.054;8.552;2024-01-11T10:13:29;34.60;;;27.93;;
1691;SDS011;843;52.054;8.552;2024-01-11T10:18:42;38.10;;;30.47;;
1691;SDS011;843;52.054;8.552;2024-01-11T10:21:09;34.30;;;29.73;;
1691;SDS011;843;52.054;8.552;2024-01-11T10:23:37;35.83;;;30.60;;
1691;SDS011;843;52.054;8.552;2024-01-11T10:26:04;39.80;;;31.63;;
1691;SDS011;843;52.054;8.552;2024-01-11T10:28:32;43.53;;;32.27;;
1691;SDS011;843;52.054;8.552;2024-01-11T10:31:02;36.77;;;31.13;;
1691;SDS011;843;52.054;8.552;2024-01-11T10:33:29;40.23;;;31.43;;
1691;SDS011;843;52.054;8.552;2024-01-11T10:35:55;35.60;;;28.30;;
1691;SDS011;843;52.054;8.552;2024-01-11T10:38:22;41.20;;;26.70;;
1691;SDS011;843;52.054;8.552;2024-01-11T10:40:50;36.00;;;27.17;;
1691;SDS011;843;52.054;8.552;2024-01-11T10:43:19;36.97;;;26.37;;
1691;SDS011;843;52.054;8.552;2024-01-11T10:45:47;40.17;;;26.83;;
1691;SDS011;843;52.054;8.552;2024-01-11T10:48:15;33.77;;;28.03;;
1691;SDS011;843;52.054;8.552;2024-01-11T10:50:42;36.27;;;29.50;;
1691;SDS011;843;52.054;8.552;2024-01-11T10:53:12;40.43;;;28.60;;
1691;SDS011;843;52.054;8.552;2024-01-11T10:55:38;37.27;;;28.47;;
1691;SDS011;843;52.054;8.552;2024-01-11T10:58:06;37.47;;;28.10;;
1691;SDS011;843;52.054;8.552;2024-01-11T11:00:34;34.60;;;27.83;;
1691;SDS011;843;52.054;8.552;2024-01-11T11:03:01;35.63;;;29.10;;
1691;SDS011;843;52.054;8.552;2024-01-11T11:05:28;31.40;;;27.27;;
1691;SDS011;843;52.054;8.552;2024-01-11T11:07:55;33.10;;;26.87;;
1691;SDS011;843;52.054;8.552;2024-01-11T11:10:22;30.07;;;26.53;;
1691;SDS011;843;52.054;8.552;2024-01-11T11:12:51;38.73;;;27.17;;
1691;SDS011;843;52.054;8.552;2024-01-11T11:15:19;31.10;;;26.40;;
1691;SDS011;843;52.054;8.552;2024-01-11T11:17:46;32.13;;;25.53;;
1691;SDS011;843;52.054;8.552;2024-01-11T11:20:15;32.87;;;26.20;;
1691;SDS011;843;52.054;8.552;2024-01-11T11:22:42;38.53;;;23.90;;
1691;SDS011;843;52.054;8.552;2024-01-11T11:25:08;33.87;;;24.93;;
1691;SDS011;843;52.054;8.552;2024-01-11T11:27:35;32.60;;;24.97;;
1691;SDS011;843;52.054;8.552;2024-01-11T11:30:02;33.43;;;25.20;;
1691;SDS011;843;52.054;8.552;2024-01-11T11:32:42;29.80;;;23.37;;
1691;SDS011;843;52.054;8.552;2024-01-11T11:35:09;35.33;;;25.03;;
1691;SDS011;843;52.054;8.552;2024-01-11T11:37:36;32.40;;;23.47;;
1691;SDS011;843;52.054;8.552;2024-01-11T11:40:02;34.80;;;24.20;;
1691;SDS011;843;52.054;8.552;2024-01-11T11:42:30;34.20;;;23.23;;
1691;SDS011;843;52.054;8.552;2024-01-11T11:44:56;37.70;;;26.07;;
1691;SDS011;843;52.054;8.552;2024-01-11T11:47:23;39.73;;;23.93;;
1691;SDS011;843;52.054;8.552;2024-01-11T11:49:58;39.87;;;25.80;;
1691;SDS011;843;52.054;8.552;2024-01-11T11:52:25;37.43;;;24.77;;
1691;SDS011;843;52.054;8.552;2024-01-11T11:54:52;38.17;;;25.03;;
1691;SDS011;843;52.054;8.552;2024-01-11T11:57:19;38.23;;;24.80;;
1691;SDS011;843;52.054;8.552;2024-01-11T11:59:47;44.03;;;26.57;;
1691;SDS011;843;52.054;8.552;2024-01-11T12:02:15;35.67;;;24.10;;
1691;SDS011;843;52.054;8.552;2024-01-11T12:04:46;37.17;;;23.50;;
1691;SDS011;843;52.054;8.552;2024-01-11T12:07:14;40.17;;;23.07;;
1691;SDS011;843;52.054;8.552;2024-01-11T12:09:41;35.07;;;23.07;;
1691;SDS011;843;52.054;8.552;2024-01-11T12:12:07;37.93;;;25.23;;
1691;SDS011;843;52.054;8.552;2024-01-11T12:14:34;34.53;;;23.50;;
1691;SDS011;843;52.054;8.552;2024-01-11T12:17:00;34.83;;;23.87;;
1691;SDS011;843;52.054;8.552;2024-01-11T12:19:27;37.70;;;22.45;;
1691;SDS011;843;52.054;8.552;2024-01-11T12:21:54;37.33;;;22.83;;
1691;SDS011;843;52.054;8.552;2024-01-11T12:24:22;41.83;;;22.20;;
1691;SDS011;843;52.054;8.552;2024-01-11T12:26:48;44.90;;;24.50;;
1691;SDS011;843;52.054;8.552;2024-01-11T12:29:16;42.73;;;23.50;;
1691;SDS011;843;52.054;8.552;2024-01-11T12:31:43;48.33;;;23.33;;
1691;SDS011;843;52.054;8.552;2024-01-11T12:34:09;34.63;;;21.60;;
1691;SDS011;843;52.054;8.552;2024-01-11T12:36:37;38.67;;;23.70;;
1691;SDS011;843;52.054;8.552;2024-01-11T12:39:04;38.03;;;24.13;;
1691;SDS011;843;52.054;8.552;2024-01-11T12:41:32;44.33;;;24.60;;
1691;SDS011;843;52.054;8.552;2024-01-11T12:43:59;36.07;;;23.40;;
1691;SDS011;843;52.054;8.552;2024-01-11T12:46:25;32.47;;;22.43;;
1691;SDS011;843;52.054;8.552;2024-01-11T12:48:52;38.07;;;21.47;;
1691;SDS011;843;52.054;8.552;2024-01-11T12:51:18;37.37;;;21.63;;
1691;SDS011;843;52.054;8.552;2024-01-11T12:53:45;38.80;;;21.47;;
1691;SDS011;843;52.054;8.552;2024-01-11T12:56:12;41.93;;;21.67;;
1691;SDS011;843;52.054;8.552;2024-01-11T12:58:41;36.90;;;20.30;;
1691;SDS011;843;52.054;8.552;2024-01-11T13:01:08;33.73;;;21.17;;
1691;SDS011;843;52.054;8.552;2024-01-11T13:03:35;38.20;;;23.63;;
1691;SDS011;843;52.054;8.552;2024-01-11T13:06:02;38.30;;;23.80;;
1691;SDS011;843;52.054;8.552;2024-01-11T13:08:29;44.27;;;24.10;;
1691;SDS011;843;52.054;8.552;2024-01-11T13:10:56;34.83;;;21.60;;
1691;SDS011;843;52.054;8.552;2024-01-11T13:13:22;42.17;;;23.73;;
1691;SDS011;843;52.054;8.552;2024-01-11T13:15:51;37.30;;;22.37;;
1691;SDS011;843;52.054;8.552;2024-01-11T13:18:17;41.37;;;21.17;;
1691;SDS011;843;52.054;8.552;2024-01-11T13:20:44;32.40;;;19.60;;
1691;SDS011;843;52.054;8.552;2024-01-11T13:23:12;43.47;;;19.80;;
1691;SDS011;843;52.054;8.552;2024-01-11T13:25:39;34.20;;;19.07;;
1691;SDS011;843;52.054;8.552;2024-01-11T13:28:05;33.47;;;19.27;;
1691;SDS011;843;52.054;8.552;2024-01-11T13:30:32;30.83;;;18.17;;
1691;SDS011;843;52.054;8.552;2024-01-11T13:33:00;32.03;;;18.47;;
1691;SDS011;843;52.054;8.552;2024-01-11T13:35:26;29.90;;;19.13;;
1691;SDS011;843;52.054;8.552;2024-01-11T13:37:53;35.87;;;17.10;;
1691;SDS011;843;52.054;8.552;2024-01-11T13:40:19;33.10;;;16.30;;
1691;SDS011;843;52.054;8.552;2024-01-11T13:42:46;37.97;;;17.00;;
1691;SDS011;843;52.054;8.552;2024-01-11T13:45:12;35.20;;;17.03;;
1691;SDS011;843;52.054;8.552;2024-01-11T13:47:39;32.50;;;17.47;;
1691;SDS011;843;52.054;8.552;2024-01-11T13:50:07;35.00;;;19.93;;
1691;SDS011;843;52.054;8.552;2024-01-11T13:52:33;33.50;;;18.97;;
1691;SDS011;843;52.054;8.552;2024-01-11T13:55:00;32.33;;;18.20;;
1691;SDS011;843;52.054;8.552;2024-01-11T13:57:26;32.47;;;17.73;;
1691;SDS011;843;52.054;8.552;2024-01-11T13:59:53;35.07;;;17.90;;
1691;SDS011;843;52.054;8.552;2024-01-11T14:02:19;39.50;;;19.10;;
1691;SDS011;843;52.054;8.552;2024-01-11T14:04:46;33.23;;;17.27;;
1691;SDS011;843;52.054;8.552;2024-01-11T14:07:14;31.63;;;17.90;;
1691;SDS011;843;52.054;8.552;2024-01-11T14:09:40;26.90;;;15.67;;
1691;SDS011;843;52.054;8.552;2024-01-11T14:12:07;26.47;;;15.90;;
1691;SDS011;843;52.054;8.552;2024-01-11T14:14:34;36.10;;;15.90;;
1691;SDS011;843;52.054;8.552;2024-01-11T14:17:00;30.87;;;16.47;;
1691;SDS011;843;52.054;8.552;2024-01-11T14:19:26;24.57;;;14.57;;
1691;SDS011;843;52.054;8.552;2024-01-11T14:21:53;26.70;;;16.00;;
1691;SDS011;843;52.054;8.552;2024-01-11T14:24:21;33.83;;;18.00;;
1691;SDS011;843;52.054;8.552;2024-01-11T14:26:47;24.87;;;15.70;;
1691;SDS011;843;52.054;8.552;2024-01-11T14:29:14;28.40;;;17.07;;
1691;SDS011;843;52.054;8.552;2024-01-11T14:31:41;26.37;;;15.57;;
1691;SDS011;843;52.054;8.552;2024-01-11T14:34:07;27.47;;;17.57;;
1691;SDS011;843;52.054;8.552;2024-01-11T14:36:34;32.27;;;17.50;;
1691;SDS011;843;52.054;8.552;2024-01-11T14:39:00;27.17;;;15.60;;
1691;SDS011;843;52.054;8.552;2024-01-11T14:41:30;35.00;;;16.03;;
1691;SDS011;843;52.054;8.552;2024-01-11T14:43:57;25.20;;;15.90;;
1691;SDS011;843;52.054;8.552;2024-01-11T14:46:25;28.97;;;15.30;;
1691;SDS011;843;52.054;8.552;2024-01-11T14:48:51;32.57;;;16.20;;
1691;SDS011;843;52.054;8.552;2024-01-11T14:51:18;31.73;;;15.50;;
1691;SDS011;843;52.054;8.552;2024-01-11T14:53:44;34.00;;;16.40;;
1691;SDS011;843;52.054;8.552;2024-01-11T14:56:10;29.77;;;14.33;;
1691;SDS011;843;52.054;8.552;2024-01-11T14:58:39;22.00;;;14.10;;
1691;SDS011;843;52.054;8.552;2024-01-11T15:01:05;24.43;;;13.47;;